Time;durP1;ratioP1;P1;durP2;ratioP2;P2;SDS_P1;SDS_P2;PMS_P1;PMS_P2;Temp;Humidity;BMP_temperature;BMP_pressure;BME280_temperature;BME280_humidity;BME280_pressure;Samples;Min_cycle;Max_cycle;Signal;HPM_P1;HPM_P2
2022/01/05 00:00:53;;;;;;;;;;;;;;;5.58;100.00;98347.13;5045198;28;20081;-58
2022/01/05 00:03:18;;;;;;;;;;;;;;;5.64;100.00;98349.31;5062520;28;19920;-58
2022/01/05 00:05:43;;;;;;;;;;;;;;;5.70;100.00;98348.13;5072939;28;19912;-58
2022/01/05 00:08:08;;;;;;;;;;;;;;;5.59;100.00;98349.56;5072961;28;19923;-58
2022/01/05 00:10:34;;;;;;;;;;;;;;;5.58;100.00;98352.22;5062088;28;19926;-56
2022/01/05 00:12:59;;;;;;;;;;;;;;;5.53;100.00;98339.75;5058972;28;19923;-58
2022/01/05 00:15:24;;;;;;;;;;;;;;;5.52;100.00;98335.59;5061646;28;20011;-56
2022/01/05 00:17:50;;;;;;;;;;;;;;;5.52;100.00;98322.84;5071708;28;19962;-57
2022/01/05 00:20:15;;;;;;;;;;;;;;;5.55;100.00;98324.38;5062179;28;19924;-57
2022/01/05 00:22:40;;;;;;;;;;;;;;;5.59;100.00;98318.16;5071306;28;19956;-57
2022/01/05 00:25:06;;;;;;;;;;;;;;;5.62;100.00;98312.88;5072133;28;20007;-57
2022/01/05 00:27:31;;;;;;;;;;;;;;;5.61;100.00;98314.59;5072339;28;19913;-57
2022/01/05 00:29:58;;;;;;;;;;;;;;;5.55;100.00;98307.34;5072209;28;19912;-57
2022/01/05 00:32:23;;;;;;;;;;;;;;;5.56;100.00;98308.97;5037691;28;19974;-57
2022/01/05 00:34:48;;;;;;;;;;;;;;;5.55;100.00;98307.34;5052253;28;20015;-57
2022/01/05 00:37:14;;;;;;;;;;;;;;;5.53;100.00;98303.25;5052113;28;19921;-57
2022/01/05 00:39:39;;;;;;;;;;;;;;;5.53;100.00;98303.25;5051460;28;19923;-56
2022/01/05 00:42:04;;;;;;;;;;;;;;;5.50;100.00;98296.59;5074417;28;19927;-57
2022/01/05 00:44:29;;;;;;;;;;;;;;;5.63;100.00;98294.94;5071665;28;19924;-56
2022/01/05 00:46:55;;;;;;;;;;;;;;;5.59;100.00;98297.75;5071795;28;19916;-57
2022/01/05 00:49:20;;;;;;;;;;;;;;;5.63;100.00;98297.47;5072014;28;19916;-56
2022/01/05 00:51:45;;;;;;;;;;;;;;;5.59;100.00;98290.91;5075393;28;19916;-57
2022/01/05 00:54:11;;;;;;;;;;;;;;;5.53;100.00;98281.09;5091656;28;19918;-56
2022/01/05 00:56:36;;;;;;;;;;;;;;;5.45;100.00;98289.22;5092017;28;19947;-57
2022/01/05 00:59:01;;;;;;;;;;;;;;;5.40;100.00;98285.34;5091925;28;19912;-56
2022/01/05 01:01:26;;;;;;;;;;;;;;;5.49;100.00;98280.50;5080948;28;19999;-57
2022/01/05 01:03:52;;;;;;;;;;;;;;;5.52;100.00;98279.47;5085435;28;19965;-56
2022/01/05 01:06:17;;;;;;;;;;;;;;;5.57;100.00;98285.09;5091995;28;20245;-57
2022/01/05 01:08:42;;;;;;;;;;;;;;;5.62;100.00;98280.53;5092031;28;19920;-57
2022/01/05 01:11:08;;;;;;;;;;;;;;;5.71;100.00;98278.31;5080992;28;19916;-57
2022/01/05 01:13:33;;;;;;;;;;;;;;;5.53;100.00;98280.28;5091060;28;19912;-57
2022/01/05 01:15:58;;;;;;;;;;;;;;;5.54;100.00;98280.19;5091348;28;19960;-56
2022/01/05 01:18:23;;;;;;;;;;;;;;;5.45;100.00;98286.69;5091842;28;20312;-57
2022/01/05 01:20:49;;;;;;;;;;;;;;;5.37;100.00;98293.19;5080934;28;20018;-57
2022/01/05 01:23:18;;;;;;;;;;;;;;;5.33;100.00;98293.38;5090769;28;20392;-57
2022/01/05 01:25:43;;;;;;;;;;;;;;;5.30;100.00;98298.66;5091477;28;20007;-57
2022/01/05 01:28:08;;;;;;;;;;;;;;;5.27;100.00;98310.78;5086040;28;20006;-57
2022/01/05 01:30:34;;;;;;;;;;;;;;;5.24;100.00;98321.16;5062247;28;20328;-56
2022/01/05 01:32:59;;;;;;;;;;;;;;;5.23;100.00;98332.28;5082359;28;20020;-57
2022/01/05 01:35:25;;;;;;;;;;;;;;;5.21;100.00;98329.81;5070956;28;19920;-57
2022/01/05 01:37:51;;;;;;;;;;;;;;;5.25;100.00;98322.81;5058876;28;19912;-56
2022/01/05 01:40:16;;;;;;;;;;;;;;;5.32;100.00;98322.34;5042822;28;19913;-57
2022/01/05 01:42:41;;;;;;;;;;;;;;;5.20;100.00;98309.50;5064601;28;19913;-57
2022/01/05 01:45:07;;;;;;;;;;;;;;;5.12;100.00;98313.38;5050927;28;20011;-56
2022/01/05 01:47:32;;;;;;;;;;;;;;;5.12;100.00;98318.47;5041130;28;19913;-57
2022/01/05 01:49:57;;;;;;;;;;;;;;;5.16;100.00;98317.34;5031185;28;20373;-57
2022/01/05 01:52:22;;;;;;;;;;;;;;;5.04;100.00;98332.59;5036181;28;19917;-57
2022/01/05 01:54:47;;;;;;;;;;;;;;;5.06;100.00;98328.19;5030768;28;19925;-57
2022/01/05 01:57:13;;;;;;;;;;;;;;;5.02;100.00;98322.47;5030997;28;19917;-57
2022/01/05 01:59:38;;;;;;;;;;;;;;;4.96;100.00;98326.22;5036771;28;19924;-57
2022/01/05 02:02:04;;;;;;;;;;;;;;;4.97;100.00;98343.13;5055987;28;20365;-57
2022/01/05 02:04:29;;;;;;;;;;;;;;;4.94;100.00;98362.88;5061700;28;19917;-57
2022/01/05 02:06:54;;;;;;;;;;;;;;;4.89;100.00;98423.47;5063717;28;19917;-57
2022/01/05 02:09:21;;;;;;;;;;;;;;;3.66;100.00;98431.91;5070695;28;20012;-57
2022/01/05 02:11:46;;;;;;;;;;;;;;;3.35;100.00;98433.50;5074034;28;19959;-57
2022/01/05 02:14:12;;;;;;;;;;;;;;;2.96;100.00;98447.34;5072536;28;20437;-57
2022/01/05 02:16:40;;;;;;;;;;;;;;;2.96;100.00;98454.97;5070827;28;19923;-57
2022/01/05 02:19:06;;;;;;;;;;;;;;;3.00;100.00;98471.69;5070923;28;20310;-56
2022/01/05 02:21:36;;;;;;;;;;;;;;;2.96;100.00;98467.66;5072270;28;19987;-57
2022/01/05 02:24:02;;;;;;;;;;;;;;;2.88;100.00;98471.41;5074031;28;20406;-57
2022/01/05 02:26:27;;;;;;;;;;;;;;;2.93;100.00;98477.97;5070758;28;19921;-57
2022/01/05 02:28:52;;;;;;;;;;;;;;;2.90;100.00;98479.78;5070461;28;19916;-57
2022/01/05 02:31:18;;;;;;;;;;;;;;;2.95;100.00;98466.00;5070458;28;20203;-57
2022/01/05 02:33:43;;;;;;;;;;;;;;;2.96;100.00;98480.34;5076128;28;19912;-57
2022/01/05 02:36:11;;;;;;;;;;;;;;;2.92;100.00;98486.50;5070489;28;19916;-56
2022/01/05 02:38:36;;;;;;;;;;;;;;;2.84;100.00;98492.78;5051769;28;19970;-57
2022/01/05 02:41:08;;;;;;;;;;;;;;;2.78;100.00;98489.69;5047975;28;19917;-57
2022/01/05 02:43:34;;;;;;;;;;;;;;;2.77;100.00;98500.72;5057187;28;19917;-56
2022/01/05 02:45:59;;;;;;;;;;;;;;;2.81;100.00;98509.88;5050401;28;19913;-56
2022/01/05 02:48:24;;;;;;;;;;;;;;;2.74;100.00;98510.16;5033306;28;20020;-56
2022/01/05 02:50:50;;;;;;;;;;;;;;;2.65;100.00;98507.25;5026522;28;20381;-56
2022/01/05 02:53:15;;;;;;;;;;;;;;;2.77;100.00;98505.81;5029015;28;19928;-57
2022/01/05 02:55:40;;;;;;;;;;;;;;;2.76;100.00;98504.19;5030103;28;19975;-57
2022/01/05 02:58:05;;;;;;;;;;;;;;;2.78;100.00;98510.00;5034061;28;20456;-57
2022/01/05 03:00:31;;;;;;;;;;;;;;;2.76;100.00;98530.41;5041598;28;20298;-57
2022/01/05 03:02:56;;;;;;;;;;;;;;;2.76;100.00;98514.34;5070384;28;19917;-57
2022/01/05 03:05:21;;;;;;;;;;;;;;;2.78;100.00;98526.06;5073660;28;19913;-57
2022/01/05 03:07:46;;;;;;;;;;;;;;;2.66;100.00;98509.69;5073798;28;19948;-56
2022/01/05 03:10:13;;;;;;;;;;;;;;;2.58;100.00;98517.69;5063544;28;19998;-57
2022/01/05 03:12:41;;;;;;;;;;;;;;;2.65;100.00;98535.16;5072703;28;20431;-57
2022/01/05 03:15:07;;;;;;;;;;;;;;;2.65;100.00;98543.59;5073463;28;19920;-56
2022/01/05 03:17:32;;;;;;;;;;;;;;;2.65;100.00;98561.38;5073711;28;19957;-56
2022/01/05 03:19:57;;;;;;;;;;;;;;;2.61;100.00;98567.50;5073676;28;19913;-57
2022/01/05 03:22:22;;;;;;;;;;;;;;;2.60;100.00;98559.94;5062570;28;20340;-57
2022/01/05 03:24:48;;;;;;;;;;;;;;;2.59;100.00;98574.34;5073345;28;19957;-57
2022/01/05 03:27:13;;;;;;;;;;;;;;;2.49;100.00;98571.41;5072379;28;19919;-57
2022/01/05 03:29:38;;;;;;;;;;;;;;;2.47;100.00;98580.81;5073583;28;19912;-57
2022/01/05 03:32:03;;;;;;;;;;;;;;;2.43;100.00;98589.44;5062352;28;20404;-57
2022/01/05 03:34:31;;;;;;;;;;;;;;;2.45;100.00;98597.81;5073186;28;19912;-57
2022/01/05 03:36:56;;;;;;;;;;;;;;;2.45;100.00;98604.63;5068460;28;19950;-57
2022/01/05 03:39:22;;;;;;;;;;;;;;;2.41;100.00;98606.47;5053536;28;19917;-57
2022/01/05 03:41:47;;;;;;;;;;;;;;;2.40;100.00;98612.44;5071137;28;19994;-56
2022/01/05 03:44:12;;;;;;;;;;;;;;;2.52;100.00;98613.63;5074880;28;20452;-57
2022/01/05 03:46:37;;;;;;;;;;;;;;;2.55;100.00;98633.78;5073195;28;19958;-56
2022/01/05 03:49:03;;;;;;;;;;;;;;;2.54;100.00;98637.19;5073080;28;19912;-56
2022/01/05 03:51:29;;;;;;;;;;;;;;;2.46;100.00;98629.94;5064644;28;19916;-56
2022/01/05 03:53:54;;;;;;;;;;;;;;;2.39;100.00;98618.41;5092936;28;19912;-56
2022/01/05 03:56:19;;;;;;;;;;;;;;;2.42;100.00;98623.34;5093181;28;19946;-57
2022/01/05 03:58:44;;;;;;;;;;;;;;;2.38;100.00;98637.06;5093254;28;19923;-57
2022/01/05 04:01:10;;;;;;;;;;;;;;;2.39;100.00;98647.16;5055781;28;19921;-57
2022/01/05 04:03:35;;;;;;;;;;;;;;;2.36;100.00;98659.97;5085024;28;19924;-57
2022/01/05 04:06:00;;;;;;;;;;;;;;;2.47;100.00;98664.59;5093072;28;20377;-57
2022/01/05 04:08:25;;;;;;;;;;;;;;;2.45;100.00;98676.50;5093002;28;19923;-57
2022/01/05 04:10:50;;;;;;;;;;;;;;;2.35;100.00;98677.81;5082032;28;20332;-57
2022/01/05 04:13:16;;;;;;;;;;;;;;;2.31;100.00;98691.50;5092213;28;19912;-57
2022/01/05 04:15:42;;;;;;;;;;;;;;;2.30;100.00;98698.31;5081982;28;20027;-57
2022/01/05 04:18:07;;;;;;;;;;;;;;;2.35;100.00;98711.59;5091954;28;20362;-57
2022/01/05 04:20:33;;;;;;;;;;;;;;;2.40;100.00;98706.34;5082262;28;20285;-57
2022/01/05 04:22:58;;;;;;;;;;;;;;;2.40;100.00;98713.97;5091803;28;19920;-56
2022/01/05 04:25:24;;;;;;;;;;;;;;;2.41;100.00;98720.69;5092412;28;19964;-57
2022/01/05 04:27:49;;;;;;;;;;;;;;;2.35;100.00;98734.44;5092718;28;19912;-57
2022/01/05 04:30:14;;;;;;;;;;;;;;;2.34;100.00;98739.59;5059951;28;19962;-57
2022/01/05 04:32:40;;;;;;;;;;;;;;;2.33;100.00;98743.88;5076442;28;19916;-57
2022/01/05 04:35:05;;;;;;;;;;;;;;;2.30;100.00;98745.69;5090713;28;19920;-57
2022/01/05 04:37:32;;;;;;;;;;;;;;;2.34;100.00;98744.69;5082767;28;19916;-57
2022/01/05 04:39:57;;;;;;;;;;;;;;;2.26;100.00;98742.47;5072170;28;20395;-57
2022/01/05 04:42:22;;;;;;;;;;;;;;;2.27;100.00;98749.19;5047726;28;19956;-57
2022/01/05 04:44:47;;;;;;;;;;;;;;;2.30;100.00;98764.28;5042029;28;20289;-57
2022/01/05 04:47:13;;;;;;;;;;;;;;;2.37;100.00;98765.66;5040206;28;19999;-57
2022/01/05 04:49:38;;;;;;;;;;;;;;;2.41;100.00;98773.97;5035042;28;20015;-57
2022/01/05 04:52:04;;;;;;;;;;;;;;;2.39;100.00;98775.75;5033286;28;19917;-57
2022/01/05 04:54:29;;;;;;;;;;;;;;;2.36;100.00;98791.13;5051744;28;19944;-57
2022/01/05 04:56:55;;;;;;;;;;;;;;;2.37;100.00;98800.34;5051825;28;20015;-57
2022/01/05 04:59:20;;;;;;;;;;;;;;;2.35;100.00;98797.09;5051766;28;19916;-57
2022/01/05 05:01:45;;;;;;;;;;;;;;;2.31;100.00;98791.31;5054596;28;19928;-57
2022/01/05 05:04:10;;;;;;;;;;;;;;;2.23;100.00;98800.94;5071153;28;19962;-57
2022/01/05 05:06:35;;;;;;;;;;;;;;;2.27;100.00;98805.03;5071859;28;20352;-57
2022/01/05 05:09:01;;;;;;;;;;;;;;;2.22;100.00;98820.44;5071540;28;19915;-57
2022/01/05 05:11:26;;;;;;;;;;;;;;;2.20;100.00;98823.91;5060633;28;20285;-57
2022/01/05 05:13:51;;;;;;;;;;;;;;;2.26;100.00;98831.28;5070985;28;19999;-57
2022/01/05 05:16:16;;;;;;;;;;;;;;;2.30;100.00;98826.91;5071408;28;20293;-57
2022/01/05 05:18:41;;;;;;;;;;;;;;;2.33;100.00;98824.22;5071377;28;20339;-56
2022/01/05 05:21:07;;;;;;;;;;;;;;;2.34;100.00;98830.97;5060604;28;20467;-56
2022/01/05 05:23:32;;;;;;;;;;;;;;;2.32;99.39;98837.78;5070701;28;19919;-57
2022/01/05 05:25:57;;;;;;;;;;;;;;;2.29;98.72;98848.91;5070891;28;20463;-57
2022/01/05 05:28:23;;;;;;;;;;;;;;;2.31;98.33;98848.84;5071389;28;19923;-57
2022/01/05 05:30:48;;;;;;;;;;;;;;;2.29;98.35;98853.97;5060468;28;19924;-57
2022/01/05 05:33:13;;;;;;;;;;;;;;;2.22;99.04;98858.47;5053565;28;19923;-57
2022/01/05 05:35:42;;;;;;;;;;;;;;;2.20;98.92;98855.19;5061484;28;19920;-57
2022/01/05 05:38:07;;;;;;;;;;;;;;;2.16;97.58;98856.19;5050121;28;20369;-56
2022/01/05 05:40:32;;;;;;;;;;;;;;;2.16;97.44;98861.25;5049290;28;20009;-58
2022/01/05 05:42:58;;;;;;;;;;;;;;;2.10;96.08;98848.81;5082856;28;19913;-56
2022/01/05 05:45:23;;;;;;;;;;;;;;;1.99;92.82;98868.72;5070942;28;20514;-57
2022/01/05 05:47:48;;;;;;;;;;;;;;;1.94;92.73;98866.34;5071020;28;19912;-56
2022/01/05 05:50:13;;;;;;;;;;;;;;;1.89;92.42;98865.72;5061968;28;19917;-57
2022/01/05 05:52:39;;;;;;;;;;;;;;;1.83;92.07;98881.16;5090270;28;19910;-57
2022/01/05 05:55:04;;;;;;;;;;;;;;;1.81;92.64;98877.84;5090618;28;19923;-57
2022/01/05 05:57:30;;;;;;;;;;;;;;;1.76;93.10;98893.22;5090904;28;19912;-57
2022/01/05 05:59:55;;;;;;;;;;;;;;;1.73;93.60;98886.56;5090946;28;20015;-57
2022/01/05 06:02:20;;;;;;;;;;;;;;;1.67;93.91;98896.13;5079777;28;19916;-57
2022/01/05 06:04:45;;;;;;;;;;;;;;;1.64;94.80;98892.00;5076553;28;19920;-57
2022/01/05 06:07:10;;;;;;;;;;;;;;;1.63;94.87;98913.16;5080902;28;19974;-57
2022/01/05 06:09:36;;;;;;;;;;;;;;;1.53;95.33;98915.19;5089754;28;19916;-57
2022/01/05 06:12:01;;;;;;;;;;;;;;;1.46;96.82;98921.38;5079894;28;20341;-57
2022/01/05 06:14:26;;;;;;;;;;;;;;;1.48;97.66;98916.22;5070946;28;19924;-56
2022/01/05 06:16:51;;;;;;;;;;;;;;;1.47;97.55;98925.56;5070921;28;19925;-57
2022/01/05 06:19:17;;;;;;;;;;;;;;;1.38;97.31;98931.78;5070642;28;19916;-57
2022/01/05 06:21:44;;;;;;;;;;;;;;;1.37;97.21;98927.59;5073465;28;19920;-57
2022/01/05 06:24:09;;;;;;;;;;;;;;;1.16;94.17;98925.81;5073252;28;19947;-58
2022/01/05 06:26:34;;;;;;;;;;;;;;;1.13;92.46;98927.56;5070946;28;19963;-57
2022/01/05 06:29:00;;;;;;;;;;;;;;;1.11;92.18;98938.66;5070755;28;19912;-57
2022/01/05 06:31:25;;;;;;;;;;;;;;;1.06;91.00;98946.38;5071415;28;19951;-57
2022/01/05 06:33:50;;;;;;;;;;;;;;;0.98;91.38;98953.44;5075401;28;19919;-57
2022/01/05 06:36:15;;;;;;;;;;;;;;;0.94;92.10;98960.31;5070531;28;19917;-57
2022/01/05 06:38:40;;;;;;;;;;;;;;;0.85;91.96;98963.13;5053582;28;19912;-56
2022/01/05 06:41:06;;;;;;;;;;;;;;;0.77;91.51;98968.44;5045121;28;19920;-57
2022/01/05 06:43:31;;;;;;;;;;;;;;;0.76;92.44;98983.69;5055599;28;19913;-57
2022/01/05 06:45:57;;;;;;;;;;;;;;;0.71;92.24;98983.00;5054593;28;19920;-57
2022/01/05 06:48:22;;;;;;;;;;;;;;;0.69;91.34;98984.75;5052818;28;19913;-56
2022/01/05 06:50:48;;;;;;;;;;;;;;;0.63;91.63;98988.31;5050233;28;19920;-57
2022/01/05 06:53:13;;;;;;;;;;;;;;;0.64;91.53;98992.50;5053449;28;20433;-57
2022/01/05 06:55:39;;;;;;;;;;;;;;;0.69;91.49;98989.81;5053990;28;20417;-57
2022/01/05 06:58:04;;;;;;;;;;;;;;;0.63;91.85;98991.69;5054283;28;20416;-57
2022/01/05 07:00:31;;;;;;;;;;;;;;;0.62;92.05;98999.31;5041140;28;19983;-57
2022/01/05 07:02:56;;;;;;;;;;;;;;;0.57;92.64;99016.34;5045983;28;19955;-57
2022/01/05 07:05:22;;;;;;;;;;;;;;;0.48;90.99;99008.16;5035100;28;20038;-57
2022/01/05 07:07:47;;;;;;;;;;;;;;;0.48;90.75;99019.97;5035372;28;20490;-57
2022/01/05 07:10:12;;;;;;;;;;;;;;;0.55;88.55;99028.22;5024585;28;19913;-58
2022/01/05 07:12:38;;;;;;;;;;;;;;;0.56;88.62;99035.75;5045290;28;19953;-57
2022/01/05 07:15:04;;;;;;;;;;;;;;;0.53;88.17;99035.03;5034492;28;19923;-58
2022/01/05 07:17:29;;;;;;;;;;;;;;;0.51;87.90;99039.28;5038922;28;19925;-58
2022/01/05 07:19:54;;;;;;;;;;;;;;;0.55;87.92;99038.34;5035392;28;19918;-58
2022/01/05 07:22:20;;;;;;;;;;;;;;;0.50;87.92;99045.22;5038468;28;20095;-58
2022/01/05 07:24:45;;;;;;;;;;;;;;;0.52;88.55;99051.09;5035886;28;19920;-59
2022/01/05 07:27:10;;;;;;;;;;;;;;;0.43;89.27;99059.78;5035960;28;19913;-58
2022/01/05 07:29:35;;;;;;;;;;;;;;;0.44;89.56;99069.03;5036193;28;19970;-56
2022/01/05 07:32:00;;;;;;;;;;;;;;;0.50;89.86;99063.78;5037729;28;20357;-56
2022/01/05 07:34:26;;;;;;;;;;;;;;;0.43;90.69;99064.84;5035574;28;19975;-57
2022/01/05 07:36:51;;;;;;;;;;;;;;;0.41;91.39;99069.09;5034262;28;19917;-57
2022/01/05 07:39:16;;;;;;;;;;;;;;;0.34;91.28;99072.72;5035015;28;19978;-57
2022/01/05 07:41:41;;;;;;;;;;;;;;;0.33;91.73;99081.97;5035442;28;19928;-57
2022/01/05 07:44:07;;;;;;;;;;;;;;;0.27;92.89;99077.94;5037994;28;19963;-57
2022/01/05 07:46:32;;;;;;;;;;;;;;;0.23;92.43;99076.34;5044959;28;19955;-57
2022/01/05 07:48:58;;;;;;;;;;;;;;;0.31;93.34;99086.25;5039358;28;20549;-60
2022/01/05 07:51:23;;;;;;;;;;;;;;;0.35;93.34;99079.41;5035967;28;19920;-60
2022/01/05 07:53:48;;;;;;;;;;;;;;;0.42;92.99;99081.72;5037811;28;19924;-58
2022/01/05 07:56:14;;;;;;;;;;;;;;;0.45;92.00;99086.69;5052846;28;19967;-57
2022/01/05 07:58:39;;;;;;;;;;;;;;;0.46;91.77;99090.88;5047320;28;19917;-58
2022/01/05 08:01:04;;;;;;;;;;;;;;;0.42;91.57;99094.38;5026459;28;20314;-57
2022/01/05 08:03:33;;;;;;;;;;;;;;;0.46;92.03;99101.00;5051912;28;19916;-57
2022/01/05 08:05:59;;;;;;;;;;;;;;;0.38;91.81;99114.75;5048857;28;19917;-57
2022/01/05 08:08:24;;;;;;;;;;;;;;;0.43;91.80;99123.84;5049743;28;20404;-57
2022/01/05 08:10:50;;;;;;;;;;;;;;;0.45;92.24;99129.69;5055475;28;19920;-58
2022/01/05 08:13:15;;;;;;;;;;;;;;;0.47;91.10;99135.56;5081963;28;19921;-57
2022/01/05 08:15:40;;;;;;;;;;;;;;;0.55;90.97;99139.56;5062353;28;20031;-58
2022/01/05 08:18:05;;;;;;;;;;;;;;;0.66;90.86;99147.69;5067957;28;19921;-58
2022/01/05 08:20:30;;;;;;;;;;;;;;;0.64;90.29;99146.88;5062056;28;20023;-57
2022/01/05 08:22:56;;;;;;;;;;;;;;;0.73;90.05;99149.16;5061754;28;19921;-58
2022/01/05 08:25:21;;;;;;;;;;;;;;;0.64;90.32;99152.78;5068585;28;19912;-58
2022/01/05 08:27:46;;;;;;;;;;;;;;;0.72;89.30;99152.56;5057376;28;20358;-57
2022/01/05 08:30:17;;;;;;;;;;;;;;;0.75;87.55;99146.59;5015933;28;19917;-58
2022/01/05 08:33:13;;;;;;;;;;;;;;;0.88;87.16;99155.47;4896586;27;19995;-58
2022/01/05 08:36:28;;;;;;;11.57;2.00;;;;;;;0.95;86.89;99163.72;4997607;27;20546;-58
2022/01/05 08:38:53;;;;;;;7.00;2.20;;;;;;;0.88;86.31;99167.28;5020616;28;20248;-58
2022/01/05 08:41:19;;;;;;;7.00;2.20;;;;;;;0.84;84.79;99166.56;5031781;28;20229;-58
2022/01/05 08:43:45;;;;;;;9.53;3.57;;;;;;;1.02;85.03;99169.41;5041618;28;20266;-58
2022/01/05 08:46:11;;;;;;;8.57;2.70;;;;;;;1.10;84.92;99172.53;5042790;28;20235;-58
2022/01/05 08:48:39;;;;;;;3.90;2.07;;;;;;;1.21;83.70;99172.22;5036883;28;20185;-58
2022/01/05 08:51:04;;;;;;;5.70;2.33;;;;;;;1.27;84.70;99164.44;5031105;28;20320;-58
2022/01/05 08:53:30;;;;;;;5.03;1.93;;;;;;;1.36;85.05;99163.31;5034794;28;20522;-58
2022/01/05 08:55:55;;;;;;;8.73;2.60;;;;;;;1.21;84.33;99167.97;5027569;28;20571;-58
2022/01/05 08:58:21;;;;;;;6.57;2.67;;;;;;;1.46;84.53;99167.19;5027740;28;20765;-58
2022/01/05 09:00:48;;;;;;;8.33;2.67;;;;;;;2.05;84.16;99161.03;5023084;28;20764;-58
2022/01/05 09:03:15;;;;;;;7.57;2.33;;;;;;;3.13;79.65;99163.06;5036883;28;20249;-58
2022/01/05 09:05:40;;;;;;;9.33;2.50;;;;;;;4.83;71.92;99161.00;5027462;28;20183;-59
2022/01/05 09:08:05;;;;;;;4.77;2.17;;;;;;;6.01;65.53;99168.97;5020131;28;20257;-59
2022/01/05 09:10:31;;;;;;;8.67;2.30;;;;;;;6.51;60.77;99169.84;5012682;28;20238;-57
2022/01/05 09:12:57;;;;;;;6.67;1.90;;;;;;;7.05;57.29;99171.25;5035732;28;20183;-58
2022/01/05 09:15:23;;;;;;;4.50;2.20;;;;;;;7.91;53.59;99168.94;5015533;28;20271;-58
2022/01/05 09:17:49;;;;;;;6.43;2.13;;;;;;;8.18;51.87;99175.91;5007916;28;20187;-57
2022/01/05 09:20:14;;;;;;;5.33;2.30;;;;;;;7.78;52.20;99185.09;5008075;28;20264;-59
2022/01/05 09:22:39;;;;;;;6.43;2.50;;;;;;;7.38;51.75;99183.06;5032793;28;20178;-57
2022/01/05 09:25:08;;;;;;;7.47;2.77;;;;;;;7.79;50.77;99196.97;5027097;28;20257;-57
2022/01/05 09:27:34;;;;;;;7.43;2.63;;;;;;;7.84;51.14;99200.09;5027226;28;20186;-58
2022/01/05 09:29:59;;;;;;;4.60;2.50;;;;;;;8.33;50.59;99210.03;5027039;28;20198;-58
2022/01/05 09:32:24;;;;;;;7.47;2.47;;;;;;;8.79;49.31;99211.59;5032636;28;20234;-58
2022/01/05 09:34:50;;;;;;;5.40;2.30;;;;;;;7.00;53.58;99209.84;5026635;28;20205;-58
2022/01/05 09:37:26;;;;;;;9.10;2.40;;;;;;;6.24;56.77;99211.22;5026873;28;20269;-58
2022/01/05 09:42:37;;;;;;;6.73;2.30;;;;;;;4.69;62.60;99230.41;5041579;28;20238;-58
2022/01/05 09:45:15;;;;;;;9.37;2.80;;;;;;;4.62;62.92;99234.13;5047435;28;20541;-60
2022/01/05 09:47:58;;;;;;;8.80;3.00;;;;;;;4.59;64.78;99239.34;5018989;28;20188;-57
2022/01/05 09:50:24;;;;;;;7.70;2.43;;;;;;;4.35;65.85;99236.94;4986800;28;20789;-59
2022/01/05 09:52:49;;;;;;;10.87;2.97;;;;;;;3.95;66.34;99243.72;5010563;28;20202;-59
2022/01/05 09:55:16;;;;;;;10.70;2.93;;;;;;;3.88;68.27;99249.06;5021508;28;20235;-59
2022/01/05 09:57:44;;;;;;;6.77;2.20;;;;;;;3.40;67.98;99252.66;5033812;28;20188;-59
2022/01/05 10:00:12;;;;;;;6.93;2.10;;;;;;;3.30;69.73;99254.72;5022110;28;20274;-59
2022/01/05 10:02:42;;;;;;;8.47;2.40;;;;;;;3.40;70.86;99260.28;5019189;28;20185;-59
2022/01/05 10:05:13;;;;;;;5.87;2.23;;;;;;;3.46;70.37;99260.06;4998184;28;20179;-57
2022/01/05 10:07:38;;;;;;;11.00;2.60;;;;;;;3.47;70.07;99266.75;5018834;28;20190;-59
2022/01/05 10:10:05;;;;;;;10.30;2.70;;;;;;;3.76;70.09;99261.44;5021483;28;20203;-59
2022/01/05 10:12:30;;;;;;;7.03;2.47;;;;;;;3.66;70.41;99258.41;5028373;28;20209;-59
2022/01/05 10:14:56;;;;;;;7.77;2.47;;;;;;;3.64;69.80;99258.50;5022066;28;20670;-59
2022/01/05 10:17:28;;;;;;;9.47;2.70;;;;;;;3.50;70.49;99259.03;5033160;28;20650;-59
2022/01/05 10:20:04;;;;;;;8.47;2.47;;;;;;;3.45;68.92;99258.41;5033251;28;20198;-59
2022/01/05 10:22:35;;;;;;;5.27;2.20;;;;;;;3.41;68.37;99256.03;5021146;28;20215;-59
2022/01/05 10:25:05;;;;;;;5.10;2.60;;;;;;;3.41;68.43;99261.09;5012763;28;20174;-59
2022/01/05 10:27:31;;;;;;;10.90;2.10;;;;;;;3.30;68.83;99259.81;5013582;28;20210;-57
2022/01/05 10:29:59;;;;;;;12.00;2.73;;;;;;;3.31;68.69;99271.63;5007891;28;20762;-57
2022/01/05 10:32:27;;;;;;;6.33;2.27;;;;;;;3.38;69.53;99269.69;5015425;28;20369;-58
2022/01/05 10:35:26;;;;;;;5.17;1.93;;;;;;;3.36;69.15;99276.53;5012147;28;20203;-58
2022/01/05 10:38:12;;;;;;;8.07;2.20;;;;;;;3.49;69.43;99270.09;5025088;28;20186;-58
2022/01/05 10:40:39;;;;;;;5.30;2.00;;;;;;;3.42;67.88;99283.91;5013423;28;20312;-58
2022/01/05 10:43:10;;;;;;;7.80;2.47;;;;;;;3.26;66.71;99282.84;5023055;28;20183;-58
2022/01/05 10:45:43;;;;;;;4.93;2.40;;;;;;;3.20;67.96;99292.38;5012255;28;20238;-58
2022/01/05 10:48:09;;;;;;;8.90;2.83;;;;;;;3.36;69.86;99296.88;5012466;28;20182;-58
2022/01/05 10:50:35;;;;;;;6.20;1.90;;;;;;;3.25;69.45;99292.22;5002159;28;20235;-58
2022/01/05 10:53:01;;;;;;;9.70;2.43;;;;;;;3.22;68.99;99299.94;4999336;28;20281;-58
2022/01/05 10:55:29;;;;;;;8.50;2.53;;;;;;;3.29;70.07;99303.91;5012087;28;20221;-58
2022/01/05 10:58:06;;;;;;;7.87;2.37;;;;;;;3.10;69.95;99298.69;5011574;28;20179;-59
2022/01/05 11:00:42;;;;;;;7.77;1.93;;;;;;;3.27;70.51;99303.13;5005298;28;20666;-58
2022/01/05 11:03:39;;;;;;;5.13;2.00;;;;;;;3.36;70.79;99300.25;5012271;28;20189;-58
2022/01/05 11:06:14;;;;;;;9.97;2.40;;;;;;;3.40;70.57;99298.44;5035060;28;20185;-58
2022/01/05 11:09:00;;;;;;;8.53;2.40;;;;;;;3.12;69.79;99301.97;5028378;28;20542;-58
2022/01/05 11:11:37;;;;;;;10.57;2.20;;;;;;;3.20;69.84;99307.63;5034496;28;20223;-58
2022/01/05 11:14:07;;;;;;;7.03;2.03;;;;;;;3.04;70.73;99297.19;5035169;28;20227;-58
2022/01/05 11:16:33;;;;;;;8.63;2.00;;;;;;;3.20;71.22;99302.53;5042212;28;20193;-58
2022/01/05 11:19:16;;;;;;;10.10;2.80;;;;;;;3.43;71.02;99300.03;5049077;28;20200;-59
2022/01/05 11:21:57;;;;;;;6.00;2.10;;;;;;;3.44;71.14;99297.41;5038891;28;20283;-58
2022/01/05 11:24:23;;;;;;;5.60;2.13;;;;;;;3.41;68.96;99287.34;5044383;28;20657;-59
2022/01/05 11:26:50;;;;;;;7.00;2.40;;;;;;;3.38;69.23;99290.84;5042549;28;20527;-59
2022/01/05 11:29:15;;;;;;;10.43;2.33;;;;;;;3.28;68.82;99291.25;5049157;28;20212;-58
2022/01/05 11:31:41;;;;;;;6.13;2.20;;;;;;;3.10;69.28;99288.53;5039140;28;20243;-59
2022/01/05 11:34:06;;;;;;;9.30;2.17;;;;;;;3.15;70.24;99285.78;5048774;28;20185;-59
2022/01/05 11:36:32;;;;;;;5.17;2.00;;;;;;;3.34;70.50;99279.13;5046985;28;20200;-59
2022/01/05 11:38:57;;;;;;;9.73;2.60;;;;;;;3.31;70.39;99275.88;5042579;28;20250;-58
2022/01/05 11:41:24;;;;;;;8.50;2.77;;;;;;;3.36;71.05;99271.44;5021256;28;20225;-58
2022/01/05 11:43:50;;;;;;;7.23;2.40;;;;;;;3.20;70.08;99272.03;5022894;28;20236;-58
2022/01/05 11:46:17;;;;;;;5.00;2.13;;;;;;;3.29;69.83;99278.47;5019311;28;20182;-58
2022/01/05 11:49:03;;;;;;;6.90;1.83;;;;;;;3.38;70.63;99284.94;5010600;28;20273;-58
2022/01/05 11:51:48;;;;;;;7.93;2.40;;;;;;;3.59;70.04;99280.72;5008086;28;21018;-58
2022/01/05 11:54:19;;;;;;;8.37;2.70;;;;;;;3.43;69.29;99277.13;5008689;28;20186;-58
2022/01/05 11:56:51;;;;;;;5.73;2.03;;;;;;;3.36;69.40;99285.00;5011413;28;20190;-58
2022/01/05 11:59:25;;;;;;;6.70;2.07;;;;;;;3.13;69.57;99285.03;5011516;28;20201;-58
2022/01/05 12:01:58;;;;;;;9.13;2.17;;;;;;;3.16;71.17;99290.00;5000813;28;20220;-58
2022/01/05 12:04:24;;;;;;;9.30;2.30;;;;;;;3.02;69.95;99280.34;5022594;28;20591;-58
2022/01/05 12:06:49;;;;;;;7.97;2.10;;;;;;;3.36;70.88;99284.16;5031027;28;20181;-58
2022/01/05 12:09:23;;;;;;;6.80;2.63;;;;;;;3.36;70.02;99282.47;5030466;28;20198;-58
2022/01/05 12:11:49;;;;;;;5.67;2.47;;;;;;;3.44;70.46;99274.53;5016523;28;20309;-58
2022/01/05 12:14:21;;;;;;;5.20;2.07;;;;;;;3.48;70.30;99280.31;5020008;28;20264;-58
2022/01/05 12:17:01;;;;;;;9.50;2.47;;;;;;;3.53;70.35;99275.88;5000643;28;20627;-59
2022/01/05 12:19:35;;;;;;;9.53;2.10;;;;;;;3.65;69.55;99275.41;5005912;28;20206;-59
2022/01/05 12:22:07;;;;;;;6.47;1.90;;;;;;;3.59;69.13;99278.19;5000020;28;20309;-58
2022/01/05 12:24:59;;;;;;;10.20;2.83;;;;;;;3.48;69.38;99282.88;5012733;28;20651;-59
2022/01/05 12:28:02;;;;;;;7.67;2.23;;;;;;;3.66;69.28;99286.41;5010297;28;20185;-58
2022/01/05 12:30:27;;;;;;;4.60;1.90;;;;;;;3.82;68.68;99273.91;4988079;28;20829;-58